Latest Weather Observations for Mandurah

IDW60901

Issued at 10:01 pm WST Thursday 30 July 2015 (issued every 10 minutes, with the page automatically refreshed every 10 minutes)

About weather observations | Map of Perth area stations | Latest observations for Perth area | Other Formats
Station Details ID: 009977 Name: MANDURAH Lat: -32.52 Lon: 115.71 Height: 3.0 m
Data from the previous 72 hours. | See also: Recent months at Mandurah
Date/Time
WST
Tmp

°C
App
Tmp
°C
Dew
Point
°C
Rel
Hum
%
Delta-T

°C
Wind Press
QNH
hPa
Press
MSL
hPa
Rain
since
9 am
mm
Dir
 
Spd
km/h
Gust
km/h
Spd
kts
Gust
kts
30/10:00pm 16.7 12.3 16.7 100 0.0 NNE 35 44 19 24 1014.7 1014.7 2.6
30/09:30pm 17.2 11.2 17.0 99 0.1 N 44 54 24 29 1015.9 1015.9 2.6
30/09:00pm 17.6 13.9 17.0 96 0.4 N 32 41 17 22 1016.5 1016.5 0.8
30/08:30pm 17.9 14.6 16.9 94 0.6 N 30 39 16 21 1016.2 1016.2 0.0
30/08:00pm 18.0 15.6 17.4 96 0.4 N 26 32 14 17 1016.2 1016.2 0.0
30/07:30pm 18.3 14.3 16.3 88 1.2 N 32 43 17 23 1015.4 1015.4 0.0
30/07:00pm 18.4 14.5 15.5 83 1.7 NNE 30 41 16 22 1015.3 1015.3 0.0
30/06:41pm 18.3 14.4 15.6 84 1.6 NNE 30 41 16 22 1015.0 1015.0 0.0
30/06:30pm 18.3 15.6 15.6 84 1.6 N 24 30 13 16 1017.0 1017.0 0.0
30/06:00pm 18.5 15.3 15.4 82 1.8 N 26 35 14 19 1016.8 1016.8 0.0
30/05:30pm 18.4 16.4 16.4 88 1.2 N 22 28 12 15 1016.1 1016.1 0.0
30/05:00pm 18.2 17.0 17.0 93 0.7 N 19 22 10 12 1016.2 1016.2 0.0
30/04:30pm 18.3 17.6 17.3 94 0.6 N 17 20 9 11 1015.9 1015.9 0.0
30/04:00pm 18.5 17.4 17.2 92 0.8 N 19 22 10 12 1015.9 1015.9 0.0
30/03:30pm 18.6 16.0 16.8 89 1.1 N 26 32 14 17 1016.1 1016.1 0.0
30/03:00pm 18.8 17.0 16.9 89 1.1 N 22 28 12 15 1016.3 1016.3 0.0
30/02:30pm 19.0 16.6 16.4 85 1.6 N 24 30 13 16 1016.7 1016.7 0.0
30/02:00pm 19.0 17.1 16.8 87 1.3 NNE 22 26 12 14 1016.8 1016.8 0.0
30/01:30pm 18.6 18.9 17.9 96 0.4 NNE 13 17 7 9 1017.0 1017.0 0.0
30/01:00pm 18.7 18.6 17.9 95 0.5 NNE 15 22 8 12 1017.6 1017.6 0.0
30/12:30pm 18.5 19.4 18.5 100 0.0 NNE 11 17 6 9 1018.1 1018.1 0.0
30/12:00pm 18.1 18.1 18.1 100 0.0 NNE 15 19 8 10 1018.9 1018.9 0.0
30/11:30am 18.1 18.4 17.9 99 0.1 NE 13 17 7 9 1019.3 1019.3 0.0
30/11:00am 18.1 18.3 17.6 97 0.3 NE 13 20 7 11 1019.5 1019.5 0.0
30/10:30am 18.1 18.4 17.0 93 0.7 NE 11 17 6 9 1019.9 1019.9 0.0
30/10:00am 17.8 18.1 17.0 95 0.5 ENE 11 17 6 9 1019.7 1019.7 0.0
30/09:30am 17.3 17.9 16.8 97 0.3 NE 9 13 5 7 1020.1 1020.1 0.0
30/09:00am 16.7 17.8 16.7 100 0.0 ENE 6 9 3 5 1020.1 1020.1 1.6
30/08:30am 16.0 16.9 16.0 100 0.0 ENE 6 9 3 5 1019.8 1019.8 1.6
30/08:00am 15.5 16.2 15.5 100 0.0 E 6 9 3 5 1019.6 1019.6 1.6
30/07:30am 15.3 16.3 15.3 100 0.0 ENE 4 6 2 3 1019.2 1019.2 1.6
30/07:00am 15.5 16.6 15.5 100 0.0 NE 4 4 2 2 1019.1 1019.1 1.6
30/06:30am 15.5 16.6 15.5 100 0.0 NE 4 6 2 3 1019.0 1019.0 1.6
30/06:00am 15.6 16.7 15.6 100 0.0 NE 4 6 2 3 1019.2 1019.2 1.6
30/05:30am 15.6 16.1 15.6 100 0.0 NNE 7 9 4 5 1019.0 1019.0 1.6
30/05:00am 15.7 16.4 15.7 100 0.0 NNE 6 9 3 5 1019.2 1019.2 1.6
30/04:30am 15.6 16.3 15.6 100 0.0 NNE 6 7 3 4 1018.9 1018.9 1.6
30/04:00am 15.6 16.7 15.6 100 0.0 NNE 4 6 2 3 1018.9 1018.9 1.6
30/03:30am 15.7 16.4 15.7 100 0.0 NE 6 7 3 4 1019.3 1019.3 1.6
30/03:00am 15.4 16.4 15.4 100 0.0 NE 4 6 2 3 1019.5 1019.5 1.6
30/02:30am 15.5 16.2 15.5 100 0.0 NNE 6 9 3 5 1019.6 1019.6 1.6
30/02:00am 15.4 16.0 15.4 100 0.0 ENE 6 7 3 4 1019.3 1019.3 1.6
30/01:30am 15.6 16.3 15.6 100 0.0 ENE 6 9 3 5 1019.4 1019.4 1.6
30/01:00am 15.5 16.6 15.5 100 0.0 NW 4 6 2 3 1019.7 1019.7 1.6
30/12:30am 15.7 17.2 15.7 100 0.0 NW 2 2 1 1 1019.9 1019.9 1.6
30/12:00am 15.9 17.5 15.9 100 0.0 NW 2 4 1 2 1019.7 1019.7 1.6
 
Date/Time
WST
Tmp

°C
App
Tmp
°C
Dew
Point
°C
Rel
Hum
%
Delta-T

°C
Wind Press
QNH
hPa
Press
MSL
hPa
Rain
since
9 am
mm
Dir
 
Spd
km/h
Gust
km/h
Spd
kts
Gust
kts
29/11:30pm 16.4 18.2 16.4 100 0.0 NW 2 4 1 2 1019.7 1019.7 1.6
29/11:00pm 16.9 18.9 16.9 100 0.0 NW 2 6 1 3 1019.7 1019.7 1.6
29/10:30pm 17.0 19.4 17.0 100 0.0 CALM 0 0 0 0 1019.8 1019.8 1.6
29/10:00pm 17.4 19.2 17.4 100 0.0 NW 4 6 2 3 1019.7 1019.7 1.6
29/09:30pm 17.5 20.1 17.5 100 0.0 CALM 0 2 0 1 1019.8 1019.8 1.6
29/09:00pm 17.9 19.3 17.9 100 0.0 NW 7 9 4 5 1019.7 1019.7 1.6
29/08:30pm 17.7 17.9 17.7 100 0.0 WNW 13 19 7 10 1019.4 1019.4 1.6
29/08:00pm 16.9 17.5 16.9 100 0.0 NNE 9 13 5 7 1019.1 1019.1 1.6
29/07:30pm 17.2 17.6 17.2 100 0.0 N 11 11 6 6 1019.0 1019.0 1.6
29/07:00pm 17.4 17.5 17.4 100 0.0 N 13 15 7 8 1018.7 1018.7 1.6
29/06:30pm 17.3 18.5 17.3 100 0.0 N 7 9 4 5 1018.5 1018.5 1.6
29/06:00pm 17.2 18.5 17.2 100 0.0 N 6 7 3 4 1018.1 1018.1 1.6
29/05:30pm 17.4 18.6 17.4 100 0.0 NNE 7 7 4 4 1017.7 1017.7 1.6
29/05:00pm 17.8 20.0 17.5 98 0.2 NW 2 4 1 2 1017.6 1017.6 1.6
29/04:30pm 18.0 19.5 17.5 97 0.3 NW 6 7 3 4 1017.7 1017.7 1.6
29/04:00pm 18.4 19.0 17.6 95 0.5 NW 11 11 6 6 1017.6 1017.6 1.6
29/03:30pm 18.4 18.8 17.2 93 0.7 NW 11 13 6 7 1017.6 1017.6 1.6
29/03:00pm 18.5 19.9 17.7 95 0.5 WNW 7 9 4 5 1017.4 1017.4 1.6
29/02:30pm 18.7 19.8 17.2 91 0.9 WNW 7 9 4 5 1017.1 1017.1 1.6
29/02:00pm 17.6 18.8 17.3 98 0.2 WNW 7 9 4 5 1017.0 1017.0 1.6
29/01:30pm 17.1 18.2 17.1 100 0.0 NW 7 9 4 5 1017.4 1017.4 1.6
29/01:00pm 17.5 19.7 17.5 100 0.0 NW 2 6 1 3 1017.4 1017.4 1.6
29/12:30pm 17.2 16.4 17.2 100 0.0 N 17 20 9 11 1018.0 1018.0 0.0
29/12:00pm 17.4 17.0 17.2 99 0.1 N 15 19 8 10 1018.3 1018.3 0.0
29/11:30am 17.3 17.3 17.1 99 0.1 N 13 17 7 9 1018.3 1018.3 0.0
29/11:00am 17.0 16.9 17.0 100 0.0 N 13 15 7 8 1018.3 1018.3 0.0
29/10:30am 16.6 17.1 16.6 100 0.0 NNE 9 13 5 7 1018.2 1018.2 0.0
29/10:00am 16.3 16.7 16.3 100 0.0 NNE 9 11 5 6 1018.4 1018.4 0.0
29/09:30am 15.3 15.3 15.3 100 0.0 NNE 9 11 5 6 1018.2 1018.2 0.0
29/09:00am 14.9 15.2 14.9 100 0.0 NE 7 9 4 5 1018.1 1018.1 0.0
29/08:30am 14.3 13.6 14.3 100 0.0 NE 11 13 6 7 1018.0 1018.0 0.0
29/08:00am 14.0 12.8 14.0 100 0.0 NNE 13 17 7 9 1018.0 1018.0 0.0
29/07:30am 13.7 12.8 13.7 100 0.0 NE 11 13 6 7 1017.9 1017.9 0.0
29/07:00am 13.7 12.4 13.7 100 0.0 NE 13 17 7 9 1017.7 1017.7 0.0
29/06:30am 13.6 12.7 13.6 100 0.0 NNE 11 15 6 8 1017.5 1017.5 0.0
29/06:00am 13.6 12.7 13.6 100 0.0 NNE 11 15 6 8 1017.2 1017.2 0.0
29/05:30am 13.4 12.8 13.4 100 0.0 NE 9 13 5 7 1017.0 1017.0 0.0
29/05:00am 13.3 12.6 13.1 99 0.1 NE 9 11 5 6 1017.0 1017.0 0.0
29/04:30am 13.4 12.7 13.2 99 0.1 NE 9 15 5 8 1016.9 1016.9 0.0
29/04:00am 13.7 12.3 13.5 99 0.1 NNE 13 15 7 8 1016.9 1016.9 0.0
29/03:30am 13.9 12.6 13.7 99 0.1 NNE 13 17 7 9 1016.9 1016.9 0.0
29/03:00am 13.8 12.1 13.6 99 0.1 NNE 15 20 8 11 1016.7 1016.7 0.0
29/02:30am 13.6 12.2 13.4 99 0.1 NNE 13 19 7 10 1016.6 1016.6 0.0
29/02:00am 13.5 12.5 13.3 99 0.1 NNE 11 15 6 8 1016.6 1016.6 0.0
29/01:30am 13.4 13.1 13.2 99 0.1 NE 7 11 4 6 1016.6 1016.6 0.0
29/01:00am 13.6 12.6 13.3 98 0.2 NNE 11 17 6 9 1016.7 1016.7 0.0
29/12:30am 13.7 12.5 12.9 95 0.4 NE 11 15 6 8 1016.7 1016.7 0.0
29/12:00am 13.7 12.8 12.6 93 0.6 NE 9 13 5 7 1016.7 1016.7 0.0
 
Date/Time
WST
Tmp

°C
App
Tmp
°C
Dew
Point
°C
Rel
Hum
%
Delta-T

°C
Wind Press
QNH
hPa
Press
MSL
hPa
Rain
since
9 am
mm
Dir
 
Spd
km/h
Gust
km/h
Spd
kts
Gust
kts
28/11:30pm 13.9 12.9 12.3 90 0.9 NE 9 13 5 7 1016.8 1016.8 0.0
28/11:00pm 13.9 12.8 12.1 89 1.0 NE 9 11 5 6 1016.8 1016.8 0.0
28/10:30pm 14.0 13.4 12.2 89 1.0 ENE 7 9 4 5 1016.8 1016.8 0.0
28/10:00pm 13.8 13.7 12.0 89 1.0 ENE 4 7 2 4 1016.6 1016.6 0.0
28/09:30pm 13.8 13.3 12.2 90 0.9 NE 6 9 3 5 1016.6 1016.6 0.0
28/09:00pm 13.9 13.3 11.8 87 1.1 NE 6 9 3 5 1016.3 1016.3 0.0
28/08:30pm 14.3 13.3 12.2 87 1.1 NE 9 13 5 7 1016.2 1016.2 0.0
28/08:00pm 14.7 14.0 12.0 84 1.5 ENE 7 11 4 6 1016.1 1016.1 0.0
28/07:30pm 15.2 15.2 12.5 84 1.5 NE 4 6 2 3 1016.2 1016.2 0.0
28/07:00pm 15.2 14.8 12.5 84 1.5 NE 6 9 3 5 1015.8 1015.8 0.0
28/06:30pm 15.2 14.2 12.3 83 1.6 NE 9 11 5 6 1015.5 1015.5 0.0
28/06:00pm 15.3 14.3 12.4 83 1.6 NE 9 13 5 7 1015.2 1015.2 0.0
28/05:30pm 15.4 14.4 12.3 82 1.7 NNE 9 11 5 6 1015.0 1015.0 0.0
28/05:00pm 15.3 13.5 12.1 81 1.7 N 13 17 7 9 1015.0 1015.0 0.0
28/04:30pm 15.4 14.0 12.3 82 1.7 N 11 17 6 9 1015.0 1015.0 0.0
28/04:00pm 15.2 13.0 12.2 82 1.6 N 15 20 8 11 1014.6 1014.6 0.0
28/03:30pm 15.2 11.3 12.0 81 1.7 N 24 30 13 16 1014.6 1014.6 0.0
28/03:00pm 15.3 11.0 11.9 80 1.8 N 26 32 14 17 1014.7 1014.7 0.0
28/02:30pm 15.7 12.8 12.8 83 1.6 N 20 28 11 15 1014.5 1014.5 0.0
28/02:00pm 15.8 13.8 12.7 82 1.7 NNE 15 20 8 11 1014.9 1014.9 0.0
28/01:30pm 14.8 12.0 12.7 87 1.2 N 19 22 10 12 1015.3 1015.3 0.0
28/01:00pm 14.9 12.1 12.6 86 1.3 NNE 19 24 10 13 1015.7 1015.7 0.0
28/12:30pm 14.4 11.1 12.8 90 0.9 N 22 28 12 15 1016.2 1016.2 0.0
28/12:00pm 13.9 11.4 12.3 90 0.9 NNE 17 24 9 13 1016.7 1016.7 0.0
28/11:30am 13.7 11.4 11.8 88 1.0 NNE 15 20 8 11 1017.4 1017.4 0.0
28/11:00am 13.4 11.6 10.8 84 1.4 NE 11 19 6 10 1018.2 1018.2 0.0
28/10:30am 13.1 10.7 10.1 82 1.5 NE 13 19 7 10 1018.6 1018.6 0.0
28/10:00am 12.9 11.1 9.5 80 1.7 NE 9 13 5 7 1019.4 1019.4 0.0
28/09:30am 12.9 10.9 8.8 76 2.1 NE 9 15 5 8 1019.6 1019.6 0.0
28/09:00am 12.8 12.0 8.1 73 2.3 E 2 6 1 3 1019.9 1019.9 1.2
28/08:30am 13.0 10.9 8.1 72 2.4 ENE 9 15 5 8 1019.8 1019.8 1.0
28/08:00am 13.6 11.1 8.0 69 2.8 NE 11 15 6 8 1020.4 1020.4 1.0
28/07:30am 13.8 11.2 6.2 60 3.6 ENE 9 15 5 8 1019.8 1019.8 0.6
28/07:00am 13.5 11.0 6.6 63 3.3 E 9 15 5 8 1019.3 1019.3 0.6
28/06:30am 13.6 11.1 6.7 63 3.3 E 9 13 5 7 1019.9 1019.9 0.6
28/06:00am 13.9 11.3 7.9 67 3.0 NE 11 15 6 8 1020.2 1020.2 0.6
28/05:30am 13.7 9.5 8.3 70 2.7 NE 20 26 11 14 1019.2 1019.2 0.6
28/05:00am 13.8 11.4 8.8 72 2.5 NE 11 19 6 10 1020.0 1020.0 0.4
28/04:30am 14.2 12.3 7.5 64 3.3 N 7 9 4 5 1020.8 1020.8 0.4
28/04:00am 14.2 12.5 7.5 64 3.3 NNE 6 7 3 4 1021.3 1021.3 0.4
28/03:30am 14.4 12.7 7.7 64 3.3 N 6 7 3 4 1021.4 1021.4 0.4
28/03:00am 14.7 12.9 8.0 64 3.3 NNE 7 11 4 6 1021.6 1021.6 0.2
28/02:30am 14.7 12.5 7.7 63 3.5 NNE 9 13 5 7 1022.0 1022.0 0.2
28/02:00am 15.0 12.6 7.1 59 3.9 NNE 9 13 5 7 1022.0 1022.0 0.0
28/01:30am 15.2 12.3 6.5 56 4.2 NE 11 13 6 7 1022.1 1022.1 0.0
28/01:00am 15.0 11.9 5.5 53 4.5 ENE 11 15 6 8 1021.9 1021.9 0.0
28/12:30am 15.5 12.3 6.8 56 4.3 NNE 13 17 7 9 1022.9 1022.9 0.0
28/12:00am 15.5 11.7 6.0 53 4.6 NE 15 20 8 11 1022.5 1022.5 0.0
 
Date/Time
WST
Tmp

°C
App
Tmp
°C
Dew
Point
°C
Rel
Hum
%
Delta-T

°C
Wind Press
QNH
hPa
Press
MSL
hPa
Rain
since
9 am
mm
Dir
 
Spd
km/h
Gust
km/h
Spd
kts
Gust
kts
27/11:30pm 15.3 11.6 6.3 55 4.4 NE 15 19 8 10 1022.9 1022.9 0.0
27/11:00pm 15.2 11.9 6.5 56 4.2 NE 13 20 7 11 1023.2 1023.2 0.0
27/10:30pm 15.4 12.4 6.2 54 4.4 NE 11 17 6 9 1023.4 1023.4 0.0

Latest Capital City Observations: Canberra | Sydney | Melbourne | Brisbane | Adelaide | Perth | Hobart | Darwin

Other Formats:

Comma delimited format used in spreadsheet applications
http://www.bom.gov.au/fwo/IDW60901/IDW60901.94605.axf

JavaScript Object Notation format (JSON) in row-major order
http://www.bom.gov.au/fwo/IDW60901/IDW60901.94605.json